createdAt,value
2018-06-12T00:00:48.243Z,0.00
2018-06-12T00:01:48.249Z,0.00
2018-06-12T00:02:48.243Z,0.00
2018-06-12T00:03:48.243Z,0.00
2018-06-12T00:04:48.245Z,0.00
2018-06-12T00:05:48.243Z,0.00
2018-06-12T00:06:48.244Z,0.00
2018-06-12T00:07:48.241Z,0.00
2018-06-12T00:08:48.243Z,0.00
2018-06-12T00:09:48.249Z,0.00
2018-06-12T00:10:48.242Z,0.00
2018-06-12T00:11:48.238Z,0.00
2018-06-12T00:12:48.245Z,0.00
2018-06-12T00:13:48.241Z,0.00
2018-06-12T00:14:48.242Z,0.00
2018-06-12T00:15:48.238Z,0.00
2018-06-12T00:16:48.241Z,0.00
2018-06-12T00:17:48.240Z,0.00
2018-06-12T00:18:48.243Z,0.00
2018-06-12T00:19:48.237Z,0.00
2018-06-12T00:20:48.240Z,0.00
2018-06-12T00:21:48.240Z,0.00
2018-06-12T00:22:48.239Z,0.00
2018-06-12T00:23:48.240Z,0.00
2018-06-12T00:24:48.239Z,0.00
2018-06-12T00:25:48.237Z,0.00
2018-06-12T00:26:48.237Z,0.00
2018-06-12T00:27:48.237Z,0.00
2018-06-12T00:28:48.237Z,0.00
2018-06-12T00:29:48.232Z,0.00
2018-06-12T00:30:48.237Z,0.00
2018-06-12T00:31:48.235Z,0.00
2018-06-12T00:32:48.232Z,0.00
2018-06-12T00:33:48.235Z,0.00
2018-06-12T00:34:48.235Z,0.00
2018-06-12T00:35:48.232Z,0.00
2018-06-12T00:36:48.229Z,0.00
2018-06-12T00:37:48.231Z,0.00
2018-06-12T00:38:48.233Z,0.00
2018-06-12T00:39:48.231Z,0.00
2018-06-12T00:40:48.231Z,0.00
2018-06-12T00:41:48.230Z,0.00
2018-06-12T00:42:48.230Z,0.00
2018-06-12T00:43:48.224Z,0.00
2018-06-12T00:44:48.226Z,0.00
2018-06-12T00:45:48.227Z,0.00
2018-06-12T00:46:48.226Z,0.00
2018-06-12T00:47:48.226Z,0.00
2018-06-12T00:48:48.225Z,0.00
2018-06-12T00:49:48.225Z,0.00
2018-06-12T00:50:48.224Z,0.00
2018-06-12T00:51:48.230Z,0.00
2018-06-12T00:52:48.222Z,0.00
2018-06-12T00:53:48.223Z,0.00
2018-06-12T00:54:48.219Z,0.00
2018-06-12T00:55:48.219Z,0.00
2018-06-12T00:56:48.218Z,0.00
2018-06-12T00:57:48.216Z,0.00
2018-06-12T00:58:48.219Z,0.00
2018-06-12T00:59:48.218Z,0.00
2018-06-12T01:00:48.216Z,0.00
2018-06-12T01:01:48.214Z,0.00
2018-06-12T01:02:48.218Z,0.00
2018-06-12T01:03:48.209Z,0.00
2018-06-12T01:04:48.214Z,0.00
2018-06-12T01:05:48.217Z,0.00
2018-06-12T01:06:48.213Z,0.00
2018-06-12T01:07:48.212Z,0.00
2018-06-12T01:08:48.215Z,0.00
2018-06-12T01:09:48.211Z,0.00
2018-06-12T01:10:48.211Z,0.00
2018-06-12T01:11:48.206Z,0.00
2018-06-12T01:12:48.212Z,0.00
2018-06-12T01:13:48.210Z,0.00
2018-06-12T01:14:48.206Z,0.00
2018-06-12T01:15:48.207Z,0.00
2018-06-12T01:16:48.205Z,0.00
2018-06-12T01:17:48.205Z,0.00
2018-06-12T01:18:48.202Z,0.00
2018-06-12T01:19:48.253Z,0.00
2018-06-12T01:20:48.203Z,0.00
2018-06-12T01:21:48.201Z,0.00
2018-06-12T01:22:48.204Z,0.00
2018-06-12T01:23:48.199Z,0.00
2018-06-12T01:24:48.201Z,0.00
2018-06-12T01:25:48.197Z,0.00
2018-06-12T01:26:48.197Z,0.00
2018-06-12T01:27:48.197Z,0.00
2018-06-12T01:28:48.194Z,0.00
2018-06-12T01:29:48.196Z,0.00
2018-06-12T01:30:48.195Z,0.00
2018-06-12T01:31:48.196Z,0.00
2018-06-12T01:32:48.193Z,0.00
2018-06-12T01:33:48.193Z,0.00
2018-06-12T01:34:48.190Z,0.00
2018-06-12T01:35:48.189Z,0.00
2018-06-12T01:36:48.188Z,0.00
2018-06-12T01:37:48.187Z,0.00
2018-06-12T01:38:48.184Z,0.00
2018-06-12T01:39:48.187Z,0.00
2018-06-12T01:40:48.183Z,0.00
2018-06-12T01:41:48.183Z,0.00
2018-06-12T01:42:48.186Z,0.00
2018-06-12T01:43:48.181Z,0.00
2018-06-12T01:44:48.180Z,0.00
2018-06-12T01:45:48.179Z,0.00
2018-06-12T01:46:48.180Z,0.00
2018-06-12T01:47:48.178Z,0.00
2018-06-12T01:48:48.178Z,0.00
2018-06-12T01:49:48.176Z,0.00
2018-06-12T01:50:48.176Z,0.00
2018-06-12T01:51:48.171Z,0.00
2018-06-12T01:52:48.173Z,0.00
2018-06-12T01:53:48.175Z,0.00
2018-06-12T01:54:48.173Z,0.00
2018-06-12T01:55:48.171Z,0.00
2018-06-12T01:56:48.171Z,0.00
2018-06-12T01:57:48.168Z,0.00
2018-06-12T01:58:48.167Z,0.00
2018-06-12T01:59:48.172Z,0.00
2018-06-12T02:00:48.165Z,0.00
2018-06-12T02:01:48.163Z,0.00
2018-06-12T02:02:48.162Z,0.00
2018-06-12T02:03:48.164Z,0.00
2018-06-12T02:04:48.157Z,0.00
2018-06-12T02:05:48.159Z,0.00
2018-06-12T02:06:48.157Z,0.00
2018-06-12T02:07:48.155Z,0.00
2018-06-12T02:08:48.156Z,0.00
2018-06-12T02:09:48.156Z,0.00
2018-06-12T02:10:48.156Z,0.00
2018-06-12T02:11:48.152Z,0.00
2018-06-12T02:12:48.151Z,0.00
2018-06-12T02:13:48.150Z,0.00
2018-06-12T02:14:48.149Z,0.00
2018-06-12T02:15:48.146Z,0.00
2018-06-12T02:16:48.147Z,0.00
2018-06-12T02:17:48.151Z,0.00
2018-06-12T02:18:48.144Z,0.00
2018-06-12T02:19:48.143Z,0.00
2018-06-12T02:20:48.143Z,0.00
2018-06-12T02:21:48.143Z,0.00
2018-06-12T02:22:48.140Z,0.00
2018-06-12T02:23:48.139Z,0.00
2018-06-12T02:24:48.140Z,0.00
2018-06-12T02:25:48.219Z,0.00
2018-06-12T02:26:48.135Z,0.00
2018-06-12T02:27:48.132Z,0.00
2018-06-12T02:28:48.135Z,0.00
2018-06-12T02:29:48.132Z,0.00
2018-06-12T02:30:48.126Z,0.00
2018-06-12T02:31:48.129Z,0.00
2018-06-12T02:32:48.127Z,0.00
2018-06-12T02:33:48.126Z,0.00
2018-06-12T02:34:48.125Z,0.00
2018-06-12T02:35:48.123Z,0.00
2018-06-12T02:36:48.123Z,0.00
2018-06-12T02:37:48.119Z,0.00
2018-06-12T02:38:48.124Z,0.00
2018-06-12T02:39:48.122Z,0.00
2018-06-12T02:40:48.115Z,0.00
2018-06-12T02:41:48.119Z,0.00
2018-06-12T02:42:48.116Z,0.00
2018-06-12T02:43:48.111Z,0.00
2018-06-12T02:44:48.112Z,0.00
2018-06-12T02:45:48.117Z,0.00
2018-06-12T02:46:48.115Z,0.00
2018-06-12T02:47:48.110Z,0.00
2018-06-12T02:48:48.110Z,0.00
2018-06-12T02:49:48.110Z,0.00
2018-06-12T02:50:48.109Z,0.00
2018-06-12T02:51:48.110Z,0.00
2018-06-12T02:52:48.110Z,0.00
2018-06-12T02:53:48.107Z,0.00
2018-06-12T02:54:48.105Z,0.00
2018-06-12T02:55:48.107Z,0.00
2018-06-12T02:56:48.106Z,0.00
2018-06-12T02:57:48.101Z,0.00
2018-06-12T02:58:48.104Z,0.00
2018-06-12T02:59:48.106Z,0.00
2018-06-12T03:00:48.108Z,0.00
2018-06-12T03:01:48.102Z,5.63
2018-06-12T03:02:48.103Z,5.63
2018-06-12T03:03:48.101Z,5.63
2018-06-12T03:04:48.106Z,5.63
2018-06-12T03:05:48.100Z,5.63
2018-06-12T03:06:48.095Z,5.63
2018-06-12T03:07:48.099Z,5.63
2018-06-12T03:08:48.095Z,5.63
2018-06-12T03:09:48.098Z,5.63
2018-06-12T03:10:48.089Z,5.63
2018-06-12T03:11:48.091Z,5.63
2018-06-12T03:12:48.093Z,5.63
2018-06-12T03:13:48.092Z,5.63
2018-06-12T03:14:48.093Z,5.63
2018-06-12T03:15:48.090Z,5.63
2018-06-12T03:16:48.091Z,5.63
2018-06-12T03:17:48.088Z,11.25
2018-06-12T03:18:48.088Z,11.25
2018-06-12T03:19:48.094Z,11.25
2018-06-12T03:20:48.089Z,11.25
2018-06-12T03:21:48.080Z,11.25
2018-06-12T03:22:48.085Z,11.25
2018-06-12T03:23:48.083Z,16.88
2018-06-12T03:24:48.083Z,16.88
2018-06-12T03:25:48.081Z,16.88
2018-06-12T03:26:48.083Z,22.50
2018-06-12T03:27:48.082Z,33.75
2018-06-12T03:28:48.078Z,39.38
2018-06-12T03:29:48.083Z,28.13
2018-06-12T03:30:48.079Z,33.75
2018-06-12T03:31:48.077Z,50.63
2018-06-12T03:32:48.078Z,56.25
2018-06-12T03:33:48.076Z,56.25
2018-06-12T03:34:48.075Z,56.25
2018-06-12T03:35:48.074Z,56.25
2018-06-12T03:36:48.076Z,61.88
2018-06-12T03:37:48.074Z,61.88
2018-06-12T03:38:48.069Z,56.25
2018-06-12T03:39:48.072Z,56.25
2018-06-12T03:40:48.072Z,45.00
2018-06-12T03:41:48.072Z,50.63
2018-06-12T03:42:48.071Z,61.88
2018-06-12T03:43:48.069Z,56.25
2018-06-12T03:44:48.075Z,61.88
2018-06-12T03:45:48.073Z,67.50
2018-06-12T03:46:48.070Z,67.50
2018-06-12T03:47:48.069Z,73.13
2018-06-12T03:48:48.068Z,78.75
2018-06-12T03:49:48.069Z,78.75
2018-06-12T03:50:48.070Z,78.75
2018-06-12T03:51:48.070Z,78.75
2018-06-12T03:52:48.070Z,78.75
2018-06-12T03:53:48.067Z,78.75
2018-06-12T03:54:48.070Z,84.38
2018-06-12T03:55:48.070Z,84.38
2018-06-12T03:56:48.070Z,90.00
2018-06-12T03:57:48.072Z,90.00
2018-06-12T03:58:48.070Z,95.63
2018-06-12T03:59:48.071Z,95.63
2018-06-12T04:00:48.071Z,101.25
2018-06-12T04:01:48.071Z,101.25
2018-06-12T04:02:48.074Z,106.88
2018-06-12T04:03:48.071Z,112.50
2018-06-12T04:04:48.071Z,112.50
2018-06-12T04:05:48.073Z,118.13
2018-06-12T04:06:48.071Z,118.13
2018-06-12T04:07:48.077Z,123.75
2018-06-12T04:08:48.070Z,123.75
2018-06-12T04:09:48.072Z,129.38
2018-06-12T04:10:48.079Z,129.38
2018-06-12T04:11:48.076Z,129.38
2018-06-12T04:12:48.077Z,129.38
2018-06-12T04:13:48.078Z,118.13
2018-06-12T04:14:48.146Z,118.13
2018-06-12T04:15:48.081Z,123.75
2018-06-12T04:16:48.084Z,112.50
2018-06-12T04:17:48.083Z,73.13
2018-06-12T04:18:48.083Z,67.50
2018-06-12T04:19:48.087Z,67.50
2018-06-12T04:20:48.086Z,61.88
2018-06-12T04:21:48.089Z,61.88
2018-06-12T04:22:48.090Z,61.88
2018-06-12T04:23:48.089Z,61.88
2018-06-12T04:24:48.094Z,67.50
2018-06-12T04:25:48.095Z,73.13
2018-06-12T04:26:48.095Z,73.13
2018-06-12T04:27:48.092Z,101.25
2018-06-12T04:28:48.096Z,112.50
2018-06-12T04:29:48.099Z,101.25
2018-06-12T04:30:48.103Z,135.00
2018-06-12T04:31:48.102Z,101.25
2018-06-12T04:32:48.105Z,140.63
2018-06-12T04:33:48.108Z,84.38
2018-06-12T04:34:48.107Z,78.75
2018-06-12T04:35:48.111Z,73.13
2018-06-12T04:36:48.152Z,78.75
2018-06-12T04:37:48.111Z,73.13
2018-06-12T04:38:48.113Z,78.75
2018-06-12T04:39:48.113Z,78.75
2018-06-12T04:40:48.117Z,78.75
2018-06-12T04:41:48.121Z,78.75
2018-06-12T04:42:48.118Z,84.38
2018-06-12T04:43:48.119Z,90.00
2018-06-12T04:44:48.123Z,95.63
2018-06-12T04:45:48.122Z,112.50
2018-06-12T04:46:48.120Z,118.13
2018-06-12T04:47:48.123Z,95.63
2018-06-12T04:48:48.125Z,95.63
2018-06-12T04:49:48.128Z,95.63
2018-06-12T04:50:48.127Z,101.25
2018-06-12T04:51:48.132Z,95.63
2018-06-12T04:52:48.132Z,90.00
2018-06-12T04:53:48.133Z,135.00
2018-06-12T04:54:48.132Z,95.63
2018-06-12T04:55:48.134Z,118.13
2018-06-12T04:56:48.139Z,95.63
2018-06-12T04:57:48.140Z,95.63
2018-06-12T04:58:48.139Z,95.63
2018-06-12T04:59:48.140Z,95.63
2018-06-12T05:00:48.164Z,95.63
2018-06-12T05:01:48.143Z,112.50
2018-06-12T05:02:48.149Z,112.50
2018-06-12T05:03:48.144Z,101.25
2018-06-12T05:04:48.145Z,90.00
2018-06-12T05:05:48.144Z,84.38
2018-06-12T05:06:48.148Z,84.38
2018-06-12T05:07:48.149Z,84.38
2018-06-12T05:08:48.154Z,84.38
2018-06-12T05:09:48.153Z,84.38
2018-06-12T05:10:48.156Z,84.38
2018-06-12T05:11:48.156Z,84.38
2018-06-12T05:12:48.157Z,90.00
2018-06-12T05:13:48.158Z,90.00
2018-06-12T05:14:48.159Z,90.00
2018-06-12T05:15:48.162Z,90.00
2018-06-12T05:16:48.163Z,90.00
2018-06-12T05:17:48.165Z,95.63
2018-06-12T05:18:48.163Z,101.25
2018-06-12T05:19:48.163Z,123.75
2018-06-12T05:20:48.165Z,168.75
2018-06-12T05:21:48.166Z,157.50
2018-06-12T05:22:48.171Z,180.00
2018-06-12T05:23:48.162Z,180.00
2018-06-12T05:24:48.167Z,174.38
2018-06-12T05:25:48.181Z,180.00
2018-06-12T05:26:48.174Z,140.63
2018-06-12T05:27:48.171Z,146.25
2018-06-12T05:28:48.175Z,180.00
2018-06-12T05:29:48.175Z,174.38
2018-06-12T05:30:48.174Z,163.13
2018-06-12T05:31:48.177Z,168.75
2018-06-12T05:32:48.183Z,112.50
2018-06-12T05:33:48.181Z,112.50
2018-06-12T05:34:48.177Z,135.00
2018-06-12T05:35:48.189Z,123.75
2018-06-12T05:36:48.185Z,101.25
2018-06-12T05:37:48.188Z,129.38
2018-06-12T05:38:48.189Z,146.25
2018-06-12T05:39:48.192Z,202.50
2018-06-12T05:40:48.194Z,219.38
2018-06-12T05:41:48.194Z,219.38
2018-06-12T05:42:48.198Z,180.00
2018-06-12T05:43:48.200Z,225.00
2018-06-12T05:44:48.198Z,219.38
2018-06-12T05:45:48.204Z,219.38
2018-06-12T05:46:48.256Z,208.13
2018-06-12T05:47:48.210Z,146.25
2018-06-12T05:48:48.211Z,84.38
2018-06-12T05:49:48.213Z,168.75
2018-06-12T05:50:48.215Z,230.63
2018-06-12T05:51:48.217Z,236.25
2018-06-12T05:52:48.219Z,241.88
2018-06-12T05:53:48.223Z,253.13
2018-06-12T05:54:48.224Z,258.75
2018-06-12T05:55:48.252Z,264.38
2018-06-12T05:56:48.229Z,298.13
2018-06-12T05:57:48.236Z,303.75
2018-06-12T05:58:48.233Z,298.13
2018-06-12T05:59:48.235Z,292.50
2018-06-12T06:00:48.240Z,191.25
2018-06-12T06:01:48.239Z,320.63
2018-06-12T06:02:48.243Z,360.00
2018-06-12T06:03:48.248Z,180.00
2018-06-12T06:04:48.249Z,140.63
2018-06-12T06:05:48.251Z,101.25
2018-06-12T06:06:48.256Z,90.00
2018-06-12T06:07:48.252Z,95.63
2018-06-12T06:08:48.257Z,90.00
2018-06-12T06:09:48.263Z,90.00
2018-06-12T06:10:48.267Z,101.25
2018-06-12T06:11:48.274Z,106.88
2018-06-12T06:12:48.272Z,95.63
2018-06-12T06:13:48.273Z,84.38
2018-06-12T06:14:48.277Z,84.38
2018-06-12T06:15:48.280Z,78.75
2018-06-12T06:16:48.284Z,73.13
2018-06-12T06:17:48.286Z,67.50
2018-06-12T06:18:48.286Z,67.50
2018-06-12T06:19:48.288Z,67.50
2018-06-12T06:20:48.292Z,67.50
2018-06-12T06:21:48.294Z,67.50
2018-06-12T06:22:48.302Z,67.50
2018-06-12T06:23:48.299Z,67.50
2018-06-12T06:24:48.302Z,73.13
2018-06-12T06:25:48.302Z,73.13
2018-06-12T06:26:48.304Z,84.38
2018-06-12T06:27:48.303Z,90.00
2018-06-12T06:28:48.306Z,95.63
2018-06-12T06:29:48.346Z,106.88
2018-06-12T06:30:48.314Z,129.38
2018-06-12T06:31:48.312Z,146.25
2018-06-12T06:32:48.315Z,140.63
2018-06-12T06:33:48.316Z,135.00
2018-06-12T06:34:48.319Z,118.13
2018-06-12T06:35:48.318Z,106.88
2018-06-12T06:36:48.328Z,106.88
2018-06-12T06:37:48.326Z,112.50
2018-06-12T06:38:48.327Z,118.13
2018-06-12T06:39:48.327Z,123.75
2018-06-12T06:40:48.325Z,118.13
2018-06-12T06:41:48.329Z,135.00
2018-06-12T06:42:48.332Z,146.25
2018-06-12T06:43:48.329Z,135.00
2018-06-12T06:44:48.333Z,146.25
2018-06-12T06:45:48.333Z,157.50
2018-06-12T06:46:48.336Z,174.38
2018-06-12T06:47:48.333Z,157.50
2018-06-12T06:48:48.338Z,219.38
2018-06-12T06:49:48.355Z,157.50
2018-06-12T06:50:48.338Z,180.00
2018-06-12T06:51:48.340Z,191.25
2018-06-12T06:52:48.344Z,180.00
2018-06-12T06:53:48.345Z,118.13
2018-06-12T06:54:48.346Z,101.25
2018-06-12T06:55:48.347Z,106.88
2018-06-12T06:56:48.348Z,106.88
2018-06-12T06:57:48.355Z,112.50
2018-06-12T06:58:48.389Z,118.13
2018-06-12T06:59:48.356Z,123.75
2018-06-12T07:00:48.359Z,118.13
2018-06-12T07:01:48.356Z,101.25
2018-06-12T07:02:48.359Z,95.63
2018-06-12T07:03:48.359Z,95.63
2018-06-12T07:04:48.361Z,95.63
2018-06-12T07:05:48.362Z,95.63
2018-06-12T07:06:48.364Z,90.00
2018-06-12T07:07:48.362Z,84.38
2018-06-12T07:08:48.372Z,78.75
2018-06-12T07:09:48.370Z,78.75
2018-06-12T07:10:48.369Z,78.75
2018-06-12T07:11:48.370Z,78.75
2018-06-12T07:12:48.370Z,84.38
2018-06-12T07:13:48.375Z,78.75
2018-06-12T07:14:48.374Z,78.75
2018-06-12T07:15:48.376Z,78.75
2018-06-12T07:16:48.376Z,73.13
2018-06-12T07:17:48.379Z,67.50
2018-06-12T07:18:48.380Z,67.50
2018-06-12T07:19:48.452Z,73.13
2018-06-12T07:20:48.382Z,78.75
2018-06-12T07:21:48.389Z,95.63
2018-06-12T07:22:48.383Z,106.88
2018-06-12T07:23:48.385Z,112.50
2018-06-12T07:24:48.386Z,123.75
2018-06-12T07:25:48.388Z,123.75
2018-06-12T07:26:48.390Z,129.38
2018-06-12T07:27:48.393Z,140.63
2018-06-12T07:28:48.388Z,157.50
2018-06-12T07:29:48.393Z,185.63
2018-06-12T07:30:48.394Z,258.75
2018-06-12T07:31:48.394Z,281.25
2018-06-12T07:32:48.539Z,157.50
2018-06-12T07:33:48.397Z,157.50
2018-06-12T07:34:48.398Z,163.13
2018-06-12T07:35:48.400Z,191.25
2018-06-12T07:36:48.402Z,466.88
2018-06-12T07:37:48.443Z,208.13
2018-06-12T07:38:48.406Z,213.75
2018-06-12T07:39:48.409Z,185.63
2018-06-12T07:40:48.405Z,180.00
2018-06-12T07:41:48.408Z,213.75
2018-06-12T07:42:48.413Z,309.38
2018-06-12T07:43:48.414Z,168.75
2018-06-12T07:44:48.416Z,151.88
2018-06-12T07:45:48.415Z,157.50
2018-06-12T07:46:48.423Z,208.13
2018-06-12T07:47:48.421Z,180.00
2018-06-12T07:48:48.416Z,157.50
2018-06-12T07:49:48.419Z,157.50
2018-06-12T07:50:48.427Z,163.13
2018-06-12T07:51:48.427Z,168.75
2018-06-12T07:52:48.427Z,151.88
2018-06-12T07:53:48.424Z,157.50
2018-06-12T07:54:48.427Z,168.75
2018-06-12T07:55:48.433Z,151.88
2018-06-12T07:56:48.431Z,157.50
2018-06-12T07:57:48.433Z,163.13
2018-06-12T07:58:48.436Z,191.25
2018-06-12T07:59:48.624Z,157.50
2018-06-12T08:00:48.464Z,151.88
2018-06-12T08:01:48.556Z,151.88
2018-06-12T08:02:48.441Z,157.50
2018-06-12T08:03:48.443Z,163.13
2018-06-12T08:04:48.444Z,163.13
2018-06-12T08:05:48.445Z,163.13
2018-06-12T08:06:48.449Z,151.88
2018-06-12T08:07:48.586Z,146.25
2018-06-12T08:08:48.449Z,157.50
2018-06-12T08:09:48.665Z,140.63
2018-06-12T08:10:48.454Z,208.13
2018-06-12T08:11:48.454Z,191.25
2018-06-12T08:12:48.472Z,208.13
2018-06-12T08:13:48.459Z,196.88
2018-06-12T08:14:48.459Z,185.63
2018-06-12T08:15:48.461Z,174.38
2018-06-12T08:16:48.531Z,163.13
2018-06-12T08:17:48.466Z,163.13
2018-06-12T08:18:48.467Z,140.63
2018-06-12T08:19:48.471Z,135.00
2018-06-12T08:20:48.472Z,146.25
2018-06-12T08:21:48.538Z,157.50
2018-06-12T08:22:48.472Z,140.63
2018-06-12T08:23:48.487Z,140.63
2018-06-12T08:24:48.480Z,140.63
2018-06-12T08:25:48.476Z,140.63
2018-06-12T08:26:48.481Z,140.63
2018-06-12T08:27:48.475Z,146.25
2018-06-12T08:28:48.482Z,151.88
2018-06-12T08:29:48.571Z,151.88
2018-06-12T08:30:48.485Z,151.88
2018-06-12T08:31:48.480Z,191.25
2018-06-12T08:32:48.487Z,213.75
2018-06-12T08:33:48.489Z,180.00
2018-06-12T08:34:48.495Z,157.50
2018-06-12T08:35:48.499Z,140.63
2018-06-12T08:36:48.496Z,348.75
2018-06-12T08:37:48.497Z,129.38
2018-06-12T08:38:48.497Z,129.38
2018-06-12T08:39:48.586Z,129.38
2018-06-12T08:40:48.542Z,140.63
2018-06-12T08:41:48.504Z,140.63
2018-06-12T08:42:48.506Z,146.25
2018-06-12T08:43:48.507Z,146.25
2018-06-12T08:44:48.508Z,135.00
2018-06-12T08:45:48.522Z,135.00
2018-06-12T08:46:48.514Z,140.63
2018-06-12T08:47:48.511Z,140.63
2018-06-12T08:48:48.515Z,140.63
2018-06-12T08:49:48.551Z,140.63
2018-06-12T08:50:48.520Z,140.63
2018-06-12T08:51:48.523Z,140.63
2018-06-12T08:52:48.524Z,135.00
2018-06-12T08:53:48.526Z,135.00
2018-06-12T08:54:48.530Z,129.38
2018-06-12T08:55:48.530Z,135.00
2018-06-12T08:56:48.534Z,135.00
2018-06-12T08:57:48.534Z,140.63
2018-06-12T08:58:48.536Z,146.25
2018-06-12T08:59:48.539Z,151.88
2018-06-12T09:00:48.544Z,151.88
2018-06-12T09:01:48.564Z,151.88
2018-06-12T09:02:48.545Z,163.13
2018-06-12T09:03:48.549Z,168.75
2018-06-12T09:04:48.549Z,168.75
2018-06-12T09:05:48.709Z,163.13
2018-06-12T09:06:48.552Z,157.50
2018-06-12T09:07:48.554Z,151.88
2018-06-12T09:08:48.645Z,146.25
2018-06-12T09:09:48.583Z,146.25
2018-06-12T09:10:48.560Z,146.25
2018-06-12T09:11:48.563Z,140.63
2018-06-12T09:12:48.565Z,140.63
2018-06-12T09:13:48.673Z,140.63
2018-06-12T09:14:48.569Z,135.00
2018-06-12T09:15:48.569Z,135.00
2018-06-12T09:16:48.578Z,135.00
2018-06-12T09:17:48.574Z,135.00
2018-06-12T09:18:48.576Z,135.00
2018-06-12T09:19:48.577Z,135.00
2018-06-12T09:20:48.580Z,140.63
2018-06-12T09:21:48.581Z,140.63
2018-06-12T09:22:48.586Z,140.63
2018-06-12T09:23:48.884Z,146.25
2018-06-12T09:24:48.612Z,146.25
2018-06-12T09:25:48.589Z,146.25
2018-06-12T09:26:48.593Z,140.63
2018-06-12T09:27:48.594Z,146.25
2018-06-12T09:28:48.599Z,146.25
2018-06-12T09:29:48.597Z,151.88
2018-06-12T09:30:48.613Z,151.88
2018-06-12T09:31:48.602Z,151.88
2018-06-12T09:32:48.602Z,151.88
2018-06-12T09:33:48.666Z,157.50
2018-06-12T09:34:48.611Z,157.50
2018-06-12T09:35:48.610Z,157.50
2018-06-12T09:36:48.612Z,163.13
2018-06-12T09:37:48.616Z,163.13
2018-06-12T09:38:48.649Z,157.50
2018-06-12T09:39:48.617Z,157.50
2018-06-12T09:40:48.709Z,157.50
2018-06-12T09:41:48.627Z,157.50
2018-06-12T09:42:48.625Z,157.50
2018-06-12T09:43:49.007Z,151.88
2018-06-12T09:44:48.634Z,146.25
2018-06-12T09:45:48.632Z,140.63
2018-06-12T09:46:48.637Z,140.63
2018-06-12T09:47:48.638Z,146.25
2018-06-12T09:48:48.637Z,151.88
2018-06-12T09:49:48.641Z,157.50
2018-06-12T09:50:48.639Z,157.50
2018-06-12T09:51:48.643Z,157.50
2018-06-12T09:52:48.646Z,157.50
2018-06-12T09:53:48.646Z,157.50
2018-06-12T09:54:48.650Z,157.50
2018-06-12T09:55:48.653Z,163.13
2018-06-12T09:56:48.772Z,168.75
2018-06-12T09:57:48.719Z,163.13
2018-06-12T09:58:48.776Z,157.50
2018-06-12T09:59:48.665Z,151.88
2018-06-12T10:00:48.671Z,157.50
2018-06-12T10:01:48.693Z,163.13
2018-06-12T10:02:48.670Z,185.63
2018-06-12T10:03:48.670Z,191.25
2018-06-12T10:04:48.676Z,191.25
2018-06-12T10:05:48.676Z,191.25
2018-06-12T10:06:48.731Z,191.25
2018-06-12T10:07:48.715Z,196.88
2018-06-12T10:08:48.734Z,180.00
2018-06-12T10:09:48.687Z,168.75
2018-06-12T10:10:48.824Z,163.13
2018-06-12T10:11:48.687Z,163.13
2018-06-12T10:12:48.694Z,163.13
2018-06-12T10:13:48.700Z,157.50
2018-06-12T10:14:48.710Z,157.50
2018-06-12T10:15:48.709Z,157.50
2018-06-12T10:16:48.699Z,157.50
2018-06-12T10:17:48.705Z,157.50
2018-06-12T10:18:48.762Z,157.50
2018-06-12T10:19:48.712Z,163.13
2018-06-12T10:20:48.726Z,168.75
2018-06-12T10:21:48.719Z,180.00
2018-06-12T10:22:48.719Z,185.63
2018-06-12T10:23:48.722Z,196.88
2018-06-12T10:24:48.781Z,191.25
2018-06-12T10:25:48.728Z,174.38
2018-06-12T10:26:48.729Z,157.50
2018-06-12T10:27:48.733Z,163.13
2018-06-12T10:28:48.757Z,146.25
2018-06-12T10:29:48.738Z,140.63
2018-06-12T10:30:48.735Z,140.63
2018-06-12T10:31:48.777Z,135.00
2018-06-12T10:32:48.747Z,140.63
2018-06-12T10:33:48.747Z,151.88
2018-06-12T10:34:48.750Z,151.88
2018-06-12T10:35:48.751Z,146.25
2018-06-12T10:36:48.754Z,140.63
2018-06-12T10:37:48.757Z,146.25
2018-06-12T10:38:48.761Z,163.13
2018-06-12T10:39:48.761Z,151.88
2018-06-12T10:40:48.831Z,151.88
2018-06-12T10:41:48.860Z,163.13
2018-06-12T10:42:48.772Z,163.13
2018-06-12T10:43:48.776Z,146.25
2018-06-12T10:44:48.776Z,135.00
2018-06-12T10:45:48.779Z,112.50
2018-06-12T10:46:48.780Z,90.00
2018-06-12T10:47:48.782Z,90.00
2018-06-12T10:48:48.786Z,84.38
2018-06-12T10:49:48.787Z,84.38
2018-06-12T10:50:48.792Z,90.00
2018-06-12T10:51:48.792Z,95.63
2018-06-12T10:52:48.796Z,106.88
2018-06-12T10:53:49.885Z,112.50
2018-06-12T10:54:48.797Z,118.13
2018-06-12T10:55:48.805Z,123.75
2018-06-12T10:56:48.806Z,118.13
2018-06-12T10:57:48.805Z,112.50
2018-06-12T10:58:48.808Z,101.25
2018-06-12T10:59:49.317Z,84.38
2018-06-12T11:00:48.812Z,84.38
2018-06-12T11:01:48.816Z,95.63
2018-06-12T11:02:48.816Z,84.38
2018-06-12T11:03:48.822Z,73.13
2018-06-12T11:04:48.816Z,78.75
2018-06-12T11:05:48.820Z,78.75
2018-06-12T11:06:48.827Z,73.13
2018-06-12T11:07:48.827Z,67.50
2018-06-12T11:08:48.838Z,78.75
2018-06-12T11:09:48.830Z,78.75
2018-06-12T11:10:48.858Z,73.13
2018-06-12T11:11:49.067Z,61.88
2018-06-12T11:12:48.835Z,61.88
2018-06-12T11:13:48.838Z,67.50
2018-06-12T11:14:48.841Z,73.13
2018-06-12T11:15:48.844Z,84.38
2018-06-12T11:16:48.845Z,84.38
2018-06-12T11:17:48.849Z,90.00
2018-06-12T11:18:48.855Z,95.63
2018-06-12T11:19:48.850Z,101.25
2018-06-12T11:20:48.998Z,90.00
2018-06-12T11:21:49.198Z,73.13
2018-06-12T11:22:48.850Z,50.63
2018-06-12T11:23:48.855Z,56.25
2018-06-12T11:24:50.241Z,45.00
2018-06-12T11:25:48.863Z,56.25
2018-06-12T11:26:48.865Z,45.00
2018-06-12T11:27:48.864Z,61.88
2018-06-12T11:28:48.865Z,67.50
2018-06-12T11:29:48.869Z,67.50
2018-06-12T11:30:48.875Z,84.38
2018-06-12T11:31:49.207Z,95.63
2018-06-12T11:32:48.880Z,90.00
2018-06-12T11:33:49.086Z,67.50
2018-06-12T11:34:48.876Z,56.25
2018-06-12T11:35:48.876Z,50.63
2018-06-12T11:36:48.879Z,50.63
2018-06-12T11:37:49.102Z,67.50
2018-06-12T11:38:48.887Z,61.88
2018-06-12T11:39:48.883Z,61.88
2018-06-12T11:40:48.886Z,50.63
2018-06-12T11:41:49.471Z,50.63
2018-06-12T11:42:48.890Z,45.00
2018-06-12T11:43:48.895Z,45.00
2018-06-12T11:44:48.893Z,45.00
2018-06-12T11:45:48.898Z,56.25
2018-06-12T11:46:48.892Z,50.63
2018-06-12T11:47:48.896Z,67.50
2018-06-12T11:48:48.901Z,67.50
2018-06-12T11:49:48.900Z,73.13
2018-06-12T11:50:48.903Z,56.25
2018-06-12T11:51:48.902Z,61.88
2018-06-12T11:52:48.905Z,56.25
2018-06-12T11:53:48.907Z,61.88
2018-06-12T11:54:48.913Z,61.88
2018-06-12T11:55:48.910Z,61.88
2018-06-12T11:56:48.911Z,61.88
2018-06-12T11:57:48.948Z,56.25
2018-06-12T11:58:48.918Z,56.25
2018-06-12T11:59:49.028Z,61.88
2018-06-12T12:00:48.949Z,61.88
2018-06-12T12:01:48.985Z,67.50
2018-06-12T12:02:48.951Z,61.88
2018-06-12T12:03:49.479Z,73.13
2018-06-12T12:04:48.929Z,61.88
2018-06-12T12:05:49.120Z,56.25
2018-06-12T12:06:49.044Z,61.88
2018-06-12T12:07:50.283Z,61.88
2018-06-12T12:08:49.207Z,67.50
2018-06-12T12:09:49.132Z,67.50
2018-06-12T12:10:49.622Z,67.50
2018-06-12T12:11:49.187Z,73.13
2018-06-12T12:12:49.121Z,73.13
2018-06-12T12:13:49.189Z,84.38
2018-06-12T12:14:49.016Z,78.75
2018-06-12T12:15:49.101Z,78.75
2018-06-12T12:16:49.085Z,73.13
2018-06-12T12:17:49.257Z,78.75
2018-06-12T12:18:48.975Z,73.13
2018-06-12T12:19:48.973Z,78.75
2018-06-12T12:20:49.082Z,78.75
2018-06-12T12:21:49.135Z,78.75
2018-06-12T12:22:49.402Z,78.75
2018-06-12T12:23:48.960Z,90.00
2018-06-12T12:24:49.041Z,95.63
2018-06-12T12:25:49.011Z,101.25
2018-06-12T12:26:49.011Z,106.88
2018-06-12T12:27:49.215Z,101.25
2018-06-12T12:28:49.138Z,90.00
2018-06-12T12:29:49.065Z,84.38
2018-06-12T12:30:48.998Z,78.75
2018-06-12T12:31:49.003Z,73.13
2018-06-12T12:32:48.997Z,56.25
2018-06-12T12:33:49.061Z,56.25
2018-06-12T12:34:49.015Z,56.25
2018-06-12T12:35:49.090Z,61.88
2018-06-12T12:36:49.046Z,67.50
2018-06-12T12:37:48.993Z,78.75
2018-06-12T12:38:49.377Z,84.38
2018-06-12T12:39:49.090Z,84.38
2018-06-12T12:40:49.285Z,90.00
2018-06-12T12:41:49.014Z,90.00
2018-06-12T12:42:49.006Z,84.38
2018-06-12T12:43:49.008Z,90.00
2018-06-12T12:44:49.013Z,95.63
2018-06-12T12:45:49.013Z,101.25
2018-06-12T12:46:49.110Z,95.63
2018-06-12T12:47:49.021Z,95.63
2018-06-12T12:48:49.058Z,106.88